Airport View

Enter AWOS ICAO identifier for current METAR.

ex. KFNL

KPIT 220051Z 36009KT 10SM OVC011 07/03 A3048 RMK AO2 SLP330 T00670033

22 Feb 2018 01:11

Phone: 412-472-0145

Other Area AWOS: 42PN - KAGC - KBVI - KBTP

TAF KPIT 212328Z 2200/2306 35010KT P6SM OVC010 FM220300 36008KT P6SM OVC040 FM220700 01010KT 5SM -RA OVC030 FM221000 02010KT 2SM -RA OVC015 FM221600 03010KT 2SM -RA BR OVC008 FM221800 05008KT P6SM OVC008 FM222000 05008KT P6SM OVC010